createdAt,value
2022-11-20T00:01:34.919Z,58.80
2022-11-20T00:04:02.577Z,71.67
2022-11-20T00:06:30.267Z,108.70
2022-11-20T00:09:01.182Z,41.50
2022-11-20T00:11:32.596Z,35.20
2022-11-20T00:14:02.552Z,95.90
2022-11-20T00:16:33.100Z,108.03
2022-11-20T00:19:00.088Z,71.23
2022-11-20T00:21:29.563Z,84.13
2022-11-20T00:23:58.260Z,38.57
2022-11-20T00:26:29.032Z,35.53
2022-11-20T00:29:00.118Z,46.47
2022-11-20T00:31:28.492Z,42.70
2022-11-20T00:33:55.833Z,36.80
2022-11-20T00:36:27.935Z,35.23
2022-11-20T00:38:59.702Z,35.00
2022-11-20T00:41:29.860Z,27.27
2022-11-20T00:43:57.667Z,32.63
2022-11-20T00:46:28.349Z,29.00
2022-11-20T00:48:55.661Z,30.83
2022-11-20T00:51:26.434Z,31.20
2022-11-20T00:53:55.975Z,28.03
2022-11-20T00:56:23.164Z,33.13
2022-11-20T00:58:50.626Z,30.30
2022-11-20T01:01:22.621Z,31.90
2022-11-20T01:03:52.900Z,30.37
2022-11-20T01:06:42.346Z,34.90
2022-11-20T01:09:14.958Z,30.83
2022-11-20T01:11:45.265Z,30.70
2022-11-20T01:14:23.237Z,29.83
2022-11-20T01:16:52.559Z,33.30
2022-11-20T01:19:25.199Z,24.40
2022-11-20T01:21:55.491Z,29.43
2022-11-20T01:24:23.664Z,26.97
2022-11-20T01:26:52.305Z,28.57
2022-11-20T01:29:24.985Z,30.00
2022-11-20T01:31:53.525Z,28.20
2022-11-20T01:34:23.232Z,24.63
2022-11-20T01:36:51.447Z,26.40
2022-11-20T01:39:25.527Z,27.53
2022-11-20T01:42:14.113Z,22.07
2022-11-20T01:44:57.187Z,23.23
2022-11-20T01:47:29.896Z,22.50
2022-11-20T01:50:25.470Z,25.43
2022-11-20T01:53:07.623Z,22.67
2022-11-20T01:55:42.419Z,22.40
2022-11-20T01:58:10.178Z,22.27
2022-11-20T02:00:37.343Z,25.50
2022-11-20T02:03:16.870Z,25.30
2022-11-20T02:06:20.230Z,26.23
2022-11-20T02:08:47.249Z,27.17
2022-11-20T02:11:14.318Z,23.37
2022-11-20T02:13:45.096Z,24.77
2022-11-20T02:16:44.582Z,26.30
2022-11-20T02:19:27.769Z,25.67
2022-11-20T02:22:15.546Z,28.30
2022-11-20T02:24:44.742Z,22.67
2022-11-20T02:27:16.802Z,21.87
2022-11-20T02:30:08.490Z,22.20
2022-11-20T02:32:37.369Z,28.87
2022-11-20T02:35:18.864Z,25.40
2022-11-20T02:37:49.568Z,21.77
2022-11-20T02:40:16.993Z,25.43
2022-11-20T02:42:44.034Z,27.47
2022-11-20T02:45:11.859Z,21.87
2022-11-20T02:47:38.880Z,23.23
2022-11-20T02:50:07.128Z,19.33
2022-11-20T02:52:34.089Z,23.13
2022-11-20T02:55:01.491Z,23.43
2022-11-20T02:57:28.913Z,21.83
2022-11-20T02:59:55.876Z,20.57
2022-11-20T03:02:22.915Z,20.77
2022-11-20T03:04:49.893Z,22.07
2022-11-20T03:07:17.125Z,21.87
2022-11-20T03:09:44.170Z,21.83
2022-11-20T03:12:11.108Z,23.17
2022-11-20T03:14:38.121Z,24.53
2022-11-20T03:17:05.095Z,20.47
2022-11-20T03:19:32.134Z,21.00
2022-11-20T03:21:59.148Z,26.90
2022-11-20T03:24:26.235Z,18.77
2022-11-20T03:26:53.282Z,24.17
2022-11-20T03:29:20.532Z,25.27
2022-11-20T03:31:47.835Z,26.33
2022-11-20T03:34:14.784Z,24.53
2022-11-20T03:36:43.579Z,24.17
2022-11-20T03:39:10.956Z,25.23
2022-11-20T03:41:42.236Z,25.63
2022-11-20T03:44:12.677Z,25.23
2022-11-20T03:46:40.086Z,26.07
2022-11-20T03:49:07.265Z,24.93
2022-11-20T03:51:36.838Z,24.20
2022-11-20T03:54:08.323Z,23.70
2022-11-20T03:56:39.994Z,25.43
2022-11-20T03:59:07.747Z,23.20
2022-11-20T04:01:43.159Z,32.47
2022-11-20T04:04:13.826Z,27.00
2022-11-20T04:06:40.808Z,23.83
2022-11-20T04:09:08.125Z,27.10
2022-11-20T04:11:38.329Z,24.20
2022-11-20T04:14:13.323Z,28.10
2022-11-20T04:16:40.294Z,24.03
2022-11-20T04:19:13.913Z,28.33
2022-11-20T04:21:41.529Z,27.00
2022-11-20T04:24:09.201Z,22.77
2022-11-20T04:26:36.354Z,23.30
2022-11-20T04:29:06.709Z,26.03
2022-11-20T04:31:35.940Z,25.77
2022-11-20T04:34:07.305Z,24.80
2022-11-20T04:36:35.182Z,27.07
2022-11-20T04:39:06.702Z,24.57
2022-11-20T04:41:37.215Z,26.87
2022-11-20T04:44:06.967Z,28.53
2022-11-20T04:46:43.939Z,28.87
2022-11-20T04:49:12.811Z,30.73
2022-11-20T04:51:39.869Z,28.73
2022-11-20T04:54:07.123Z,29.60
2022-11-20T04:56:34.250Z,31.33
2022-11-20T04:59:02.900Z,28.27
2022-11-20T05:01:30.304Z,29.10
2022-11-20T05:03:57.442Z,29.97
2022-11-20T05:06:24.695Z,29.70
2022-11-20T05:08:51.830Z,30.73
2022-11-20T05:11:21.985Z,27.77
2022-11-20T05:13:51.526Z,28.40
2022-11-20T05:16:24.988Z,29.20
2022-11-20T05:18:55.176Z,29.13
2022-11-20T05:21:23.438Z,31.10
2022-11-20T05:23:50.387Z,31.20
2022-11-20T05:26:22.325Z,29.23
2022-11-20T05:28:50.935Z,28.60
2022-11-20T05:31:28.053Z,27.73
2022-11-20T05:33:57.631Z,29.33
2022-11-20T05:36:25.139Z,28.87
2022-11-20T05:38:55.460Z,27.17
2022-11-20T05:41:25.413Z,30.47
2022-11-20T05:43:52.711Z,24.10
2022-11-20T05:46:27.727Z,23.43
2022-11-20T05:48:55.835Z,25.60
2022-11-20T05:51:26.672Z,25.47
2022-11-20T05:53:53.771Z,24.80
2022-11-20T05:56:22.902Z,27.60
2022-11-20T05:58:50.817Z,25.17
2022-11-20T06:01:26.135Z,24.73
2022-11-20T06:03:56.135Z,25.60
2022-11-20T06:06:23.516Z,27.77
2022-11-20T06:08:50.598Z,27.63
2022-11-20T06:11:18.332Z,27.97
2022-11-20T06:13:46.688Z,30.03
2022-11-20T06:16:17.870Z,28.10
2022-11-20T06:18:45.124Z,27.53
2022-11-20T06:21:23.529Z,26.57
2022-11-20T06:23:52.776Z,24.73
2022-11-20T06:26:28.140Z,25.33
2022-11-20T06:28:57.146Z,25.80
2022-11-20T06:31:26.873Z,24.80
2022-11-20T06:33:54.468Z,25.43
2022-11-20T06:36:24.340Z,23.90
2022-11-20T06:38:51.782Z,27.70
2022-11-20T06:41:22.713Z,23.53
2022-11-20T06:43:50.133Z,28.17
2022-11-20T06:46:19.115Z,28.37
2022-11-20T06:48:47.784Z,24.60
2022-11-20T06:51:15.430Z,24.10
2022-11-20T06:53:42.420Z,27.33
2022-11-20T06:56:09.695Z,28.00
2022-11-20T06:58:37.848Z,32.07
2022-11-20T07:01:15.139Z,30.77
2022-11-20T07:03:42.991Z,30.77
2022-11-20T07:06:11.037Z,37.23
2022-11-20T07:08:45.900Z,30.97
2022-11-20T07:11:13.617Z,29.13
2022-11-20T07:13:40.607Z,32.80
2022-11-20T07:16:09.801Z,30.53
2022-11-20T07:18:37.561Z,25.33
2022-11-20T07:21:08.791Z,28.27
2022-11-20T07:23:36.617Z,25.53
2022-11-20T07:26:10.780Z,25.87
2022-11-20T07:28:38.778Z,26.17
2022-11-20T07:31:07.772Z,24.57
2022-11-20T07:33:35.325Z,27.90
2022-11-20T07:36:03.044Z,22.00
2022-11-20T07:38:30.623Z,26.50
2022-11-20T07:40:58.801Z,25.97
2022-11-20T07:43:26.526Z,25.63
2022-11-20T07:45:57.254Z,28.77
2022-11-20T07:48:25.685Z,26.87
2022-11-20T07:50:59.135Z,23.47
2022-11-20T07:53:26.227Z,25.07
2022-11-20T07:55:53.676Z,26.43
2022-11-20T07:58:22.443Z,26.50
2022-11-20T08:00:49.794Z,24.50
2022-11-20T08:03:21.677Z,21.60
2022-11-20T08:05:51.787Z,23.03
2022-11-20T08:08:18.837Z,21.87
2022-11-20T08:10:46.004Z,22.13
2022-11-20T08:13:31.611Z,37.87
2022-11-20T08:15:58.741Z,22.83
2022-11-20T08:18:33.409Z,24.93
2022-11-20T08:21:05.102Z,22.83
2022-11-20T08:23:32.410Z,22.63
2022-11-20T08:25:59.650Z,24.07
2022-11-20T08:28:26.645Z,22.60
2022-11-20T08:31:03.504Z,24.57
2022-11-20T08:33:33.441Z,22.17
2022-11-20T08:36:06.229Z,24.30
2022-11-20T08:38:33.710Z,24.00
2022-11-20T08:41:22.617Z,25.83
2022-11-20T08:43:50.297Z,25.60
2022-11-20T08:46:17.997Z,25.67
2022-11-20T08:48:45.899Z,24.20
2022-11-20T08:51:14.088Z,24.07
2022-11-20T08:53:41.838Z,21.20
2022-11-20T08:56:10.621Z,20.97
2022-11-20T08:59:02.328Z,20.20
2022-11-20T09:01:27.884Z,19.63
2022-11-20T09:04:00.845Z,23.60
2022-11-20T09:06:27.986Z,23.27
2022-11-20T09:08:55.651Z,21.10
2022-11-20T09:11:23.003Z,24.53
2022-11-20T09:13:50.086Z,23.57
2022-11-20T09:16:17.091Z,23.67
2022-11-20T09:18:44.104Z,25.03
2022-11-20T09:21:14.559Z,25.43
2022-11-20T09:23:41.935Z,26.90
2022-11-20T09:26:16.176Z,27.87
2022-11-20T09:28:43.212Z,25.00
2022-11-20T09:31:24.947Z,28.00
2022-11-20T09:33:52.061Z,25.67
2022-11-20T09:36:19.625Z,24.00
2022-11-20T09:38:47.721Z,24.50
2022-11-20T09:42:04.575Z,25.37
2022-11-20T09:44:57.200Z,24.33
2022-11-20T09:48:03.582Z,26.17
2022-11-20T09:50:52.713Z,25.23
2022-11-20T09:53:37.755Z,26.70
2022-11-20T09:56:05.914Z,25.97
2022-11-20T09:58:48.619Z,25.97
2022-11-20T10:01:24.368Z,23.63
2022-11-20T10:04:10.485Z,20.37
2022-11-20T10:07:32.248Z,23.13
2022-11-20T10:10:00.556Z,22.97
2022-11-20T10:12:56.700Z,21.63
2022-11-20T10:15:38.962Z,22.00
2022-11-20T10:18:57.079Z,24.07
2022-11-20T10:22:12.458Z,22.00
2022-11-20T10:25:14.855Z,20.07
2022-11-20T10:28:12.414Z,20.37
2022-11-20T10:30:44.948Z,19.90
2022-11-20T10:33:27.190Z,21.40
2022-11-20T10:37:00.493Z,24.17
2022-11-20T10:40:18.512Z,20.87
2022-11-20T10:43:00.551Z,21.63
2022-11-20T10:45:30.110Z,23.13
2022-11-20T10:48:26.492Z,18.77
2022-11-20T10:51:27.675Z,21.90
2022-11-20T10:54:33.324Z,20.47
2022-11-20T10:58:16.367Z,17.47
2022-11-20T11:00:43.589Z,23.60
2022-11-20T11:03:31.693Z,18.40
2022-11-20T11:06:30.048Z,20.13
2022-11-20T11:09:04.197Z,21.03
2022-11-20T11:11:34.565Z,21.07
2022-11-20T11:14:15.305Z,18.90
2022-11-20T11:16:58.940Z,29.03
2022-11-20T11:19:26.388Z,22.87
2022-11-20T11:21:58.427Z,19.07
2022-11-20T11:24:46.512Z,16.20
2022-11-20T11:27:18.627Z,21.83
2022-11-20T11:29:47.754Z,19.13
2022-11-20T11:32:23.096Z,25.07
2022-11-20T11:35:07.595Z,29.30
2022-11-20T11:37:40.290Z,23.10
2022-11-20T11:40:27.313Z,19.30
2022-11-20T11:43:06.512Z,26.37
2022-11-20T11:45:33.553Z,21.33
2022-11-20T11:48:04.661Z,21.30
2022-11-20T11:50:32.115Z,20.17
2022-11-20T11:53:18.736Z,15.47
2022-11-20T11:56:09.137Z,14.80
2022-11-20T11:58:47.164Z,16.93
2022-11-20T12:01:54.553Z,16.77
2022-11-20T12:04:55.951Z,16.53
2022-11-20T12:07:47.897Z,16.00
2022-11-20T12:11:00.128Z,18.90
2022-11-20T12:14:04.212Z,16.63
2022-11-20T12:16:38.846Z,16.77
2022-11-20T12:19:14.211Z,15.03
2022-11-20T12:22:19.122Z,20.60
2022-11-20T12:25:23.152Z,15.87
2022-11-20T12:29:10.219Z,25.40
2022-11-20T12:32:39.044Z,17.13
2022-11-20T12:36:20.707Z,24.50
2022-11-20T12:39:23.434Z,24.27
2022-11-20T12:43:00.787Z,33.87
2022-11-20T12:46:25.948Z,16.70
2022-11-20T12:49:07.812Z,19.73
2022-11-20T12:52:07.064Z,20.13
2022-11-20T12:55:12.189Z,15.83
2022-11-20T12:58:13.809Z,12.90
2022-11-20T13:01:01.254Z,12.87
2022-11-20T13:03:55.700Z,13.67
2022-11-20T13:06:23.057Z,12.83
2022-11-20T13:08:59.228Z,16.30
2022-11-20T13:11:42.578Z,15.50
2022-11-20T13:14:47.533Z,15.80
2022-11-20T13:17:29.510Z,15.90
2022-11-20T13:19:59.666Z,15.03
2022-11-20T13:22:55.755Z,14.27
2022-11-20T13:25:41.038Z,15.47
2022-11-20T13:28:10.888Z,12.70
2022-11-20T13:30:54.076Z,12.67
2022-11-20T13:33:36.701Z,9.80
2022-11-20T13:36:20.337Z,11.47
2022-11-20T13:38:53.804Z,11.40
2022-11-20T13:41:36.216Z,14.70
2022-11-20T13:44:45.994Z,13.60
2022-11-20T13:47:29.171Z,12.33
2022-11-20T13:50:00.614Z,14.17
2022-11-20T13:53:28.513Z,14.57
2022-11-20T13:56:48.330Z,11.27
2022-11-20T13:59:41.451Z,13.57
2022-11-20T14:02:17.065Z,15.20
2022-11-20T14:04:51.987Z,14.33
2022-11-20T14:07:24.759Z,15.50
2022-11-20T14:09:58.308Z,16.10
2022-11-20T14:12:35.935Z,13.33
2022-11-20T14:15:03.522Z,16.67
2022-11-20T14:17:37.681Z,18.77
2022-11-20T14:20:16.057Z,15.20
2022-11-20T14:22:51.564Z,18.57
2022-11-20T14:25:18.593Z,18.90
2022-11-20T14:28:06.452Z,15.80
2022-11-20T14:30:49.164Z,25.30
2022-11-20T14:33:16.755Z,19.00
2022-11-20T14:35:58.880Z,23.00
2022-11-20T14:38:29.850Z,24.50
2022-11-20T14:41:20.741Z,18.27
2022-11-20T14:44:09.537Z,15.40
2022-11-20T14:46:37.152Z,19.53
2022-11-20T14:49:05.768Z,16.07
2022-11-20T14:51:44.353Z,15.97
2022-11-20T14:54:23.619Z,18.47
2022-11-20T14:57:04.273Z,16.70
2022-11-20T14:59:35.505Z,15.70
2022-11-20T15:02:11.372Z,18.17
2022-11-20T15:04:57.697Z,17.00
2022-11-20T15:07:29.338Z,23.47
2022-11-20T15:10:20.326Z,18.27
2022-11-20T15:12:54.376Z,18.27
2022-11-20T15:15:50.327Z,16.97
2022-11-20T15:18:32.118Z,15.50
2022-11-20T15:21:04.176Z,15.97
2022-11-20T15:23:31.218Z,15.97
2022-11-20T15:25:58.574Z,17.27
2022-11-20T15:28:43.408Z,15.47
2022-11-20T15:31:14.262Z,15.67
2022-11-20T15:33:41.318Z,14.27
2022-11-20T15:36:08.851Z,18.70
2022-11-20T15:38:36.213Z,16.53
2022-11-20T15:41:03.682Z,14.83
2022-11-20T15:43:30.664Z,12.90
2022-11-20T15:46:11.921Z,14.80
2022-11-20T15:48:52.201Z,16.97
2022-11-20T15:51:39.672Z,16.27
2022-11-20T15:54:21.353Z,15.90
2022-11-20T15:56:53.053Z,14.43
2022-11-20T15:59:20.519Z,12.70
2022-11-20T16:01:47.593Z,19.33
2022-11-20T16:04:17.575Z,18.10
2022-11-20T16:06:44.741Z,18.00
2022-11-20T16:09:12.866Z,14.03
2022-11-20T16:11:40.139Z,15.83
2022-11-20T16:14:26.212Z,12.73
2022-11-20T16:16:53.394Z,16.13
2022-11-20T16:19:20.854Z,14.00
2022-11-20T16:21:47.890Z,18.67
2022-11-20T16:24:16.809Z,17.17
2022-11-20T16:26:46.894Z,17.37
2022-11-20T16:29:17.808Z,18.30
2022-11-20T16:31:44.988Z,24.77
2022-11-20T16:34:12.824Z,35.63
2022-11-20T16:36:45.696Z,78.03
2022-11-20T16:39:14.442Z,22.33
2022-11-20T16:41:43.796Z,19.20
2022-11-20T16:44:11.829Z,15.80
2022-11-20T16:46:40.851Z,20.83
2022-11-20T16:49:14.395Z,18.10
2022-11-20T16:51:42.699Z,21.13
2022-11-20T16:54:11.727Z,25.27
2022-11-20T16:56:40.218Z,18.40
2022-11-20T16:59:07.454Z,17.93
2022-11-20T17:01:37.011Z,18.23
2022-11-20T17:04:07.055Z,19.97
2022-11-20T17:06:40.248Z,23.13
2022-11-20T17:09:10.788Z,20.87
2022-11-20T17:11:38.652Z,17.67
2022-11-20T17:14:09.255Z,27.23
2022-11-20T17:16:40.219Z,21.93
2022-11-20T17:19:07.400Z,20.90
2022-11-20T17:21:36.501Z,19.23
2022-11-20T17:24:09.305Z,18.30
2022-11-20T17:26:39.156Z,16.00
2022-11-20T17:29:21.485Z,15.30
2022-11-20T17:31:48.791Z,12.63
2022-11-20T17:34:16.893Z,14.03
2022-11-20T17:36:45.752Z,15.57
2022-11-20T17:39:17.709Z,15.87
2022-11-20T17:41:45.566Z,14.67
2022-11-20T17:44:13.422Z,15.17
2022-11-20T17:46:40.667Z,13.37
2022-11-20T17:49:08.385Z,16.70
2022-11-20T17:51:35.506Z,12.60
2022-11-20T17:54:07.432Z,12.53
2022-11-20T17:56:54.714Z,12.80
2022-11-20T17:59:22.286Z,15.17
2022-11-20T18:01:49.739Z,12.33
2022-11-20T18:04:17.398Z,14.63
2022-11-20T18:06:44.557Z,16.43
2022-11-20T18:09:12.491Z,13.83
2022-11-20T18:11:44.557Z,11.33
2022-11-20T18:14:28.861Z,13.17
2022-11-20T18:17:12.734Z,14.27
2022-11-20T18:19:55.619Z,12.37
2022-11-20T18:22:31.636Z,13.87
2022-11-20T18:24:58.655Z,14.07
2022-11-20T18:27:25.615Z,18.43
2022-11-20T18:29:52.899Z,12.43
2022-11-20T18:32:22.653Z,13.63
2022-11-20T18:34:51.318Z,14.67
2022-11-20T18:37:19.010Z,11.33
2022-11-20T18:39:45.948Z,13.60
2022-11-20T18:42:34.742Z,15.47
2022-11-20T18:45:04.391Z,14.20
2022-11-20T18:47:37.434Z,14.30
2022-11-20T18:50:07.873Z,13.90
2022-11-20T18:52:44.452Z,13.10
2022-11-20T18:55:12.576Z,14.13
2022-11-20T18:57:39.703Z,13.13
2022-11-20T19:00:09.904Z,14.10
2022-11-20T19:02:42.096Z,14.37
2022-11-20T19:05:14.796Z,14.53
2022-11-20T19:07:42.489Z,13.83
2022-11-20T19:10:09.950Z,13.73
2022-11-20T19:12:37.261Z,16.97
2022-11-20T19:15:05.119Z,16.93
2022-11-20T19:17:34.015Z,17.47
2022-11-20T19:20:01.170Z,16.87
2022-11-20T19:22:28.388Z,15.47
2022-11-20T19:24:55.388Z,16.77
2022-11-20T19:27:22.402Z,16.73
2022-11-20T19:29:49.789Z,17.33
2022-11-20T19:32:16.755Z,18.77
2022-11-20T19:34:43.875Z,18.87
2022-11-20T19:37:10.941Z,18.70
2022-11-20T19:39:38.103Z,14.47
2022-11-20T19:42:05.495Z,16.57
2022-11-20T19:44:32.965Z,14.07
2022-11-20T19:47:00.649Z,18.93
2022-11-20T19:49:27.690Z,15.77
2022-11-20T19:51:54.633Z,13.67
2022-11-20T19:54:21.667Z,15.23
2022-11-20T19:56:50.440Z,13.57
2022-11-20T19:59:17.454Z,15.87
2022-11-20T20:01:44.599Z,16.40
2022-11-20T20:04:12.015Z,12.90
2022-11-20T20:06:40.140Z,15.47
2022-11-20T20:09:12.404Z,18.13
2022-11-20T20:11:40.142Z,18.23
2022-11-20T20:14:14.368Z,16.40
2022-11-20T20:16:42.533Z,16.77
2022-11-20T20:19:15.430Z,18.83
2022-11-20T20:21:43.848Z,17.20
2022-11-20T20:24:12.388Z,16.17
2022-11-20T20:26:39.975Z,16.13
2022-11-20T20:29:06.961Z,17.97
2022-11-20T20:31:34.886Z,16.67
2022-11-20T20:34:03.291Z,18.00
2022-11-20T20:36:30.649Z,24.07
2022-11-20T20:38:59.625Z,18.40
2022-11-20T20:41:26.957Z,19.20
2022-11-20T20:44:13.025Z,16.37
2022-11-20T20:46:41.317Z,14.27
2022-11-20T20:49:09.139Z,18.43
2022-11-20T20:51:36.977Z,17.60
2022-11-20T20:54:04.902Z,14.67
2022-11-20T20:56:32.059Z,16.70
2022-11-20T20:58:59.089Z,17.80
2022-11-20T21:01:28.678Z,18.83
2022-11-20T21:03:56.824Z,17.23
2022-11-20T21:06:24.334Z,18.00
2022-11-20T21:08:51.662Z,15.03
2022-11-20T21:11:20.989Z,17.27
2022-11-20T21:13:49.249Z,17.77
2022-11-20T21:16:20.477Z,17.43
2022-11-20T21:18:47.595Z,20.80
2022-11-20T21:21:35.304Z,19.97
2022-11-20T21:24:03.458Z,21.37
2022-11-20T21:26:30.608Z,22.30
2022-11-20T21:28:58.620Z,24.33
2022-11-20T21:31:26.988Z,19.07
2022-11-20T21:33:56.670Z,24.17
2022-11-20T21:36:30.216Z,22.47
2022-11-20T21:39:02.026Z,20.60
2022-11-20T21:41:30.823Z,24.33
2022-11-20T21:44:29.764Z,20.63
2022-11-20T21:46:46.845Z,27.23
2022-11-20T21:49:15.210Z,28.37
2022-11-20T21:51:42.245Z,23.80
2022-11-20T21:54:11.548Z,25.23
2022-11-20T21:56:38.855Z,28.33
2022-11-20T21:59:05.824Z,25.33
2022-11-20T22:01:32.989Z,29.57
2022-11-20T22:04:02.620Z,25.37
2022-11-20T22:06:34.782Z,28.07
2022-11-20T22:09:02.981Z,31.60
2022-11-20T22:11:30.526Z,30.43
2022-11-20T22:14:16.317Z,36.70
2022-11-20T22:16:43.596Z,32.77
2022-11-20T22:19:10.715Z,37.63
2022-11-20T22:21:41.624Z,33.80
2022-11-20T22:24:20.507Z,31.10
2022-11-20T22:26:48.178Z,36.83
2022-11-20T22:29:21.402Z,32.97
2022-11-20T22:31:50.840Z,33.53
2022-11-20T22:34:17.786Z,34.43
2022-11-20T22:36:45.501Z,32.50
2022-11-20T22:39:13.185Z,30.90
2022-11-20T22:41:40.186Z,37.23
2022-11-20T22:44:13.017Z,27.77
2022-11-20T22:46:39.961Z,31.03
2022-11-20T22:49:08.779Z,33.37
2022-11-20T22:51:40.811Z,30.30
2022-11-20T22:54:11.772Z,30.77
2022-11-20T22:56:38.803Z,32.80
2022-11-20T22:59:05.920Z,24.73
2022-11-20T23:01:38.896Z,27.93
2022-11-20T23:04:10.824Z,26.30
2022-11-20T23:06:38.272Z,30.17
2022-11-20T23:09:07.357Z,26.10
2022-11-20T23:11:35.657Z,29.43
2022-11-20T23:14:15.168Z,26.37
2022-11-20T23:16:42.703Z,27.00
2022-11-20T23:19:14.543Z,30.47
2022-11-20T23:21:43.158Z,26.30
2022-11-20T23:24:11.486Z,25.13
2022-11-20T23:26:41.092Z,28.00
2022-11-20T23:29:08.512Z,24.57
2022-11-20T23:31:36.584Z,28.90
2022-11-20T23:34:04.204Z,25.33
2022-11-20T23:36:31.350Z,30.57
2022-11-20T23:38:58.345Z,26.27
2022-11-20T23:41:25.402Z,28.20
2022-11-20T23:43:53.670Z,26.87
2022-11-20T23:46:20.840Z,28.57
2022-11-20T23:48:47.878Z,24.53
2022-11-20T23:51:14.970Z,25.63
2022-11-20T23:53:42.175Z,23.10
2022-11-20T23:56:10.545Z,27.77
2022-11-20T23:58:39.191Z,26.47
